Annapolis, Washington
Current Conditions -  °F | °C
As of 10:55 AM on Tuesday 27 Jan 2015 (Local Time) from KPWT Reporting Station
Overcast Overcast  
Wind Chill: 45°   Ceiling: 400
Heat Index: 48°   Visibility: 10mi
Dew Point: 48°   Wind: 7mph
Humidity: 100%   Direction: 190°S
Pressure: 30.09"   Gusts: NA
Location:  47.5378°N, 122.589°W
Report Text: KPWT 271855Z AUTO 19006KT 10SM OVC004 09/09 A3009 RMK AO1
Loading
Personal Weather Stations






























Interactive Weather Map New forecast layout! Learn more

10-Day Weather Forecast

Advertisements
Track Severe Weather on mobile